Terminal Aerodrome Forecast
Issued by NWS Cleveland, OH

Home | Current Version | Previous Version | Graphics & Text | Print | Product List | Glossary On
Versions: 1 2 3 4 5 6 7 8 9 10 11 12 13 14 15 16
000
FTUS41 KCLE 172300
TAFTOL
TAF
KTOL 172340Z 1800/1824 28014G22KT P6SM -SHRA SCT040 OVC060
      TEMPO 1800/1802 4SM -SHRA BKN028
     FM180200 28012G20KT P6SM VCSH BKN018 OVC030
     FM180700 30012G20KT P6SM OVC022
     FM181900 31013G23KT P6SM VCSH BKN025 OVC040=

USA.gov is the U.S. government's official web portal to all federal, state and local government web resources and services.